createdAt,value
2022-11-05T00:00:19.255Z,97.20
2022-11-05T00:03:05.877Z,97.10
2022-11-05T00:05:52.233Z,97.60
2022-11-05T00:08:38.884Z,97.50
2022-11-05T00:11:06.847Z,97.70
2022-11-05T00:13:53.212Z,98.50
2022-11-05T00:16:39.590Z,98.80
2022-11-05T00:19:07.636Z,97.70
2022-11-05T00:21:54.747Z,97.90
2022-11-05T00:24:41.793Z,97.20
2022-11-05T00:27:10.163Z,97.60
2022-11-05T00:29:38.066Z,97.20
2022-11-05T00:32:05.992Z,97.40
2022-11-05T00:34:33.938Z,96.90
2022-11-05T00:37:01.777Z,98.20
2022-11-05T00:39:30.357Z,98.50
2022-11-05T00:42:16.869Z,98.30
2022-11-05T00:45:03.210Z,98.20
2022-11-05T00:48:08.226Z,98.60
2022-11-05T00:50:36.554Z,98.50
2022-11-05T00:53:04.652Z,98.60
2022-11-05T00:55:42.729Z,98.80
2022-11-05T00:58:11.923Z,99.00
2022-11-05T01:00:41.820Z,98.80
2022-11-05T01:03:11.968Z,99.10
2022-11-05T01:05:44.210Z,98.70
2022-11-05T01:08:13.446Z,99.30
2022-11-05T01:10:41.984Z,99.70
2022-11-05T01:13:12.893Z,99.10
2022-11-05T01:15:41.504Z,99.30
2022-11-05T01:18:09.426Z,98.90
2022-11-05T01:20:37.665Z,99.70
2022-11-05T01:23:11.916Z,99.90
2022-11-05T01:25:42.457Z,99.90
2022-11-05T01:28:10.347Z,99.50
2022-11-05T01:30:38.718Z,99.90
2022-11-05T01:33:06.665Z,99.90
2022-11-05T01:35:34.853Z,99.90
2022-11-05T01:38:02.749Z,99.90
2022-11-05T01:40:30.810Z,99.90
2022-11-05T01:42:58.719Z,99.90
2022-11-05T01:45:28.080Z,99.90
2022-11-05T01:48:00.653Z,99.90
2022-11-05T01:50:31.742Z,99.90
2022-11-05T01:53:06.134Z,99.90
2022-11-05T01:55:35.874Z,99.90
2022-11-05T01:58:05.604Z,99.90
2022-11-05T02:00:34.219Z,99.90
2022-11-05T02:03:02.210Z,99.90
2022-11-05T02:05:31.072Z,99.90
2022-11-05T02:07:58.968Z,99.90
2022-11-05T02:10:28.122Z,99.90
2022-11-05T02:12:56.043Z,99.90
2022-11-05T02:15:27.816Z,99.90
2022-11-05T02:18:14.394Z,99.90
2022-11-05T02:20:52.214Z,99.90
2022-11-05T02:23:23.540Z,99.90
2022-11-05T02:26:09.791Z,99.90
2022-11-05T02:28:49.797Z,99.90
2022-11-05T02:31:20.887Z,99.90
2022-11-05T02:33:57.192Z,99.90
2022-11-05T02:36:35.490Z,99.90
2022-11-05T02:39:22.661Z,99.90
2022-11-05T02:41:53.597Z,99.90
2022-11-05T02:44:30.864Z,99.90
2022-11-05T02:47:01.848Z,99.90
2022-11-05T02:49:38.695Z,99.90
2022-11-05T02:52:29.897Z,99.90
2022-11-05T02:54:57.905Z,99.90
2022-11-05T02:57:29.042Z,99.90
2022-11-05T03:00:00.851Z,99.90
2022-11-05T03:02:28.893Z,99.90
2022-11-05T03:04:57.182Z,99.90
2022-11-05T03:07:25.382Z,99.90
2022-11-05T03:10:12.034Z,99.90
2022-11-05T03:12:49.133Z,99.90
2022-11-05T03:15:17.256Z,99.90
2022-11-05T03:17:53.988Z,99.90
2022-11-05T03:20:24.861Z,99.90
2022-11-05T03:23:01.403Z,99.90
2022-11-05T03:25:30.763Z,99.90
2022-11-05T03:28:01.639Z,99.90
2022-11-05T03:30:30.439Z,99.90
2022-11-05T03:33:00.468Z,99.90
2022-11-05T03:35:34.728Z,99.90
2022-11-05T03:38:04.101Z,99.90
2022-11-05T03:40:37.083Z,99.90
2022-11-05T03:43:08.093Z,99.90
2022-11-05T03:45:39.076Z,99.90
2022-11-05T03:48:08.055Z,99.90
2022-11-05T03:50:41.479Z,99.90
2022-11-05T03:53:14.328Z,99.90
2022-11-05T03:55:51.070Z,99.90
2022-11-05T03:58:20.208Z,99.90
2022-11-05T04:00:49.015Z,99.90
2022-11-05T04:03:17.156Z,99.90
2022-11-05T04:06:04.959Z,99.90
2022-11-05T04:08:51.463Z,99.90
2022-11-05T04:11:37.908Z,99.90
2022-11-05T04:14:05.933Z,99.90
2022-11-05T04:16:52.327Z,99.90
2022-11-05T04:19:40.241Z,99.90
2022-11-05T04:22:26.817Z,99.90
2022-11-05T04:24:54.961Z,99.90
2022-11-05T04:27:22.966Z,99.90
2022-11-05T04:30:09.381Z,99.90
2022-11-05T04:32:37.221Z,99.90
2022-11-05T04:35:05.349Z,99.90
2022-11-05T04:37:33.290Z,99.90
2022-11-05T04:40:01.459Z,99.90
2022-11-05T04:42:29.783Z,99.90
2022-11-05T04:44:57.880Z,99.90
2022-11-05T04:47:25.947Z,99.90
2022-11-05T04:49:53.818Z,99.90
2022-11-05T04:52:21.827Z,99.90
2022-11-05T04:54:49.780Z,99.90
2022-11-05T04:57:17.717Z,99.90
2022-11-05T04:59:48.248Z,99.90
2022-11-05T05:02:16.356Z,99.90
2022-11-05T05:04:44.332Z,99.90
2022-11-05T05:07:12.261Z,99.90
2022-11-05T05:09:40.238Z,99.90
2022-11-05T05:12:08.395Z,99.90
2022-11-05T05:14:36.661Z,99.90
2022-11-05T05:17:04.543Z,99.90
2022-11-05T05:19:52.440Z,99.90
2022-11-05T05:22:20.373Z,99.90
2022-11-05T05:24:52.624Z,99.90
2022-11-05T05:27:21.053Z,99.90
2022-11-05T05:29:49.162Z,99.90
2022-11-05T05:32:17.186Z,99.90
2022-11-05T05:34:45.109Z,99.90
2022-11-05T05:37:13.032Z,99.90
2022-11-05T05:39:40.996Z,99.90
2022-11-05T05:42:08.906Z,99.90
2022-11-05T05:44:37.073Z,99.90
2022-11-05T05:47:05.282Z,99.90
2022-11-05T05:49:33.287Z,99.90
2022-11-05T05:52:01.243Z,99.90
2022-11-05T05:54:32.344Z,99.90
2022-11-05T05:57:02.282Z,99.90
2022-11-05T05:59:30.232Z,99.90
2022-11-05T06:01:58.350Z,99.90
2022-11-05T06:04:26.605Z,99.90
2022-11-05T06:06:54.763Z,99.90
2022-11-05T06:09:22.880Z,99.90
2022-11-05T06:11:50.821Z,99.90
2022-11-05T06:14:18.946Z,99.90
2022-11-05T06:16:46.867Z,99.90
2022-11-05T06:19:14.838Z,99.90
2022-11-05T06:21:42.918Z,99.20
2022-11-05T06:24:10.801Z,98.30
2022-11-05T06:26:43.150Z,97.30
2022-11-05T06:29:11.053Z,96.90
2022-11-05T06:31:39.045Z,96.50
2022-11-05T06:34:06.973Z,95.70
2022-11-05T06:36:34.929Z,95.40
2022-11-05T06:39:02.783Z,95.30
2022-11-05T06:41:30.651Z,95.10
2022-11-05T06:43:58.920Z,95.40
2022-11-05T06:46:26.989Z,95.30
2022-11-05T06:48:54.969Z,94.50
2022-11-05T06:51:22.981Z,93.80
2022-11-05T06:53:51.044Z,92.70
2022-11-05T06:56:18.921Z,91.70
2022-11-05T06:58:46.988Z,90.90
2022-11-05T07:01:14.980Z,90.30
2022-11-05T07:03:43.050Z,89.60
2022-11-05T07:06:11.360Z,88.70
2022-11-05T07:08:39.364Z,87.70
2022-11-05T07:11:07.425Z,86.80
2022-11-05T07:13:35.337Z,86.30
2022-11-05T07:16:03.445Z,85.00
2022-11-05T07:18:31.321Z,83.10
2022-11-05T07:20:59.844Z,80.80
2022-11-05T07:23:27.756Z,78.80
2022-11-05T07:25:55.808Z,74.40
2022-11-05T07:28:23.761Z,65.00
2022-11-05T07:30:51.898Z,68.50
2022-11-05T07:33:19.913Z,66.30
2022-11-05T07:35:47.835Z,59.30
2022-11-05T07:38:17.364Z,60.40
2022-11-05T07:40:45.315Z,58.10
2022-11-05T07:43:13.475Z,60.60
2022-11-05T07:45:41.816Z,58.90
2022-11-05T07:48:10.222Z,58.00
2022-11-05T07:50:38.472Z,57.30
2022-11-05T07:53:08.056Z,55.70
2022-11-05T07:55:36.374Z,56.70
2022-11-05T07:58:04.634Z,53.20
2022-11-05T08:00:32.671Z,51.40
2022-11-05T08:03:07.408Z,52.90
2022-11-05T08:05:41.297Z,51.30
2022-11-05T08:08:09.889Z,49.90
2022-11-05T08:10:38.288Z,50.70
2022-11-05T08:13:06.796Z,48.60
2022-11-05T08:15:35.185Z,48.50
2022-11-05T08:18:05.011Z,48.60
2022-11-05T08:20:33.428Z,48.30
2022-11-05T08:23:01.462Z,46.60
2022-11-05T08:25:29.686Z,48.80
2022-11-05T08:28:02.165Z,48.20
2022-11-05T08:30:30.433Z,46.30
2022-11-05T08:33:04.221Z,46.30
2022-11-05T08:35:32.213Z,45.00
2022-11-05T08:38:03.073Z,44.30
2022-11-05T08:40:33.574Z,44.10
2022-11-05T08:43:05.184Z,38.30
2022-11-05T08:45:33.768Z,39.90
2022-11-05T08:48:02.329Z,40.00
2022-11-05T08:50:30.398Z,39.70
2022-11-05T08:52:58.607Z,35.70
2022-11-05T08:55:27.254Z,34.70
2022-11-05T08:57:56.714Z,35.00
2022-11-05T09:00:25.395Z,33.30
2022-11-05T09:02:53.606Z,33.10
2022-11-05T09:05:22.425Z,34.70
2022-11-05T09:07:57.860Z,33.50
2022-11-05T09:10:29.214Z,32.60
2022-11-05T09:12:59.179Z,38.10
2022-11-05T09:15:28.376Z,33.10
2022-11-05T09:17:56.520Z,33.50
2022-11-05T09:20:25.047Z,36.50
2022-11-05T09:22:53.300Z,32.40
2022-11-05T09:25:25.186Z,34.90
2022-11-05T09:27:53.332Z,31.90
2022-11-05T09:30:21.402Z,32.80
2022-11-05T09:32:52.703Z,29.20
2022-11-05T09:35:20.907Z,32.80
2022-11-05T09:38:01.136Z,34.40
2022-11-05T09:40:32.212Z,29.30
2022-11-05T09:43:00.934Z,31.80
2022-11-05T09:45:30.649Z,32.90
2022-11-05T09:48:05.729Z,30.90
2022-11-05T09:50:54.238Z,29.60
2022-11-05T09:53:23.788Z,29.80
2022-11-05T09:55:53.845Z,27.80
2022-11-05T09:58:37.315Z,30.70
2022-11-05T10:01:08.302Z,32.40
2022-11-05T10:03:43.006Z,30.00
2022-11-05T10:06:13.940Z,31.90
2022-11-05T10:08:43.695Z,27.30
2022-11-05T10:11:17.763Z,28.60
2022-11-05T10:13:57.567Z,29.10
2022-11-05T10:16:36.560Z,29.80
2022-11-05T10:19:24.693Z,28.60
2022-11-05T10:22:10.692Z,29.40
2022-11-05T10:24:44.582Z,28.90
2022-11-05T10:27:24.028Z,29.90
2022-11-05T10:29:52.186Z,31.80
2022-11-05T10:32:31.066Z,29.40
2022-11-05T10:35:00.210Z,28.20
2022-11-05T10:37:28.659Z,29.90
2022-11-05T10:39:56.721Z,27.90
2022-11-05T10:42:24.654Z,27.50
2022-11-05T10:44:52.568Z,28.70
2022-11-05T10:47:32.649Z,31.10
2022-11-05T10:50:02.052Z,30.80
2022-11-05T10:52:37.190Z,27.20
2022-11-05T10:55:15.378Z,28.10
2022-11-05T10:57:43.441Z,28.40
2022-11-05T11:00:15.245Z,29.50
2022-11-05T11:02:44.079Z,27.20
2022-11-05T11:05:18.082Z,27.10
2022-11-05T11:07:52.907Z,26.60
2022-11-05T11:10:24.469Z,28.20
2022-11-05T11:12:53.375Z,26.20
2022-11-05T11:15:21.220Z,28.60
2022-11-05T11:17:49.046Z,28.50
2022-11-05T11:20:22.368Z,26.50
2022-11-05T11:23:04.435Z,28.50
2022-11-05T11:25:39.875Z,26.90
2022-11-05T11:28:11.962Z,25.60
2022-11-05T11:30:39.897Z,27.50
2022-11-05T11:33:09.311Z,28.60
2022-11-05T11:35:38.650Z,29.40
2022-11-05T11:38:07.293Z,28.60
2022-11-05T11:40:36.735Z,25.50
2022-11-05T11:43:07.100Z,26.60
2022-11-05T11:45:54.403Z,26.80
2022-11-05T11:48:25.478Z,27.90
2022-11-05T11:50:53.477Z,26.90
2022-11-05T11:53:21.353Z,27.10
2022-11-05T11:55:55.549Z,28.30
2022-11-05T11:58:25.684Z,26.80
2022-11-05T12:00:59.638Z,27.40
2022-11-05T12:03:35.883Z,27.90
2022-11-05T12:06:03.723Z,25.60
2022-11-05T12:08:31.812Z,26.30
2022-11-05T12:11:06.391Z,26.00
2022-11-05T12:13:49.903Z,26.40
2022-11-05T12:16:33.383Z,28.70
2022-11-05T12:19:24.556Z,28.00
2022-11-05T12:21:55.672Z,27.90
2022-11-05T12:24:23.741Z,25.50
2022-11-05T12:26:51.652Z,28.20
2022-11-05T12:29:34.433Z,27.80
2022-11-05T12:32:03.613Z,27.20
2022-11-05T12:34:55.978Z,26.30
2022-11-05T12:37:30.089Z,27.30
2022-11-05T12:40:18.506Z,26.80
2022-11-05T12:42:52.415Z,28.00
2022-11-05T12:45:25.935Z,29.20
2022-11-05T12:48:15.491Z,28.70
2022-11-05T12:50:46.528Z,28.30
2022-11-05T12:53:40.775Z,30.00
2022-11-05T12:56:20.642Z,29.80
2022-11-05T12:58:52.526Z,28.80
2022-11-05T13:01:24.479Z,28.90
2022-11-05T13:03:59.127Z,29.30
2022-11-05T13:06:33.163Z,30.00
2022-11-05T13:09:04.752Z,29.60
2022-11-05T13:11:38.726Z,29.60
2022-11-05T13:14:30.031Z,31.10
2022-11-05T13:17:07.386Z,30.00
2022-11-05T13:19:53.583Z,31.40
2022-11-05T13:22:21.626Z,31.20
2022-11-05T13:24:50.531Z,30.10
2022-11-05T13:27:27.487Z,30.00
2022-11-05T13:29:59.944Z,30.00
2022-11-05T13:32:29.664Z,30.10
2022-11-05T13:34:58.799Z,31.60
2022-11-05T13:37:47.114Z,33.20
2022-11-05T13:40:17.567Z,32.10
2022-11-05T13:42:55.814Z,34.50
2022-11-05T13:45:30.487Z,34.30
2022-11-05T13:48:17.323Z,33.10
2022-11-05T13:50:48.362Z,36.70
2022-11-05T13:53:22.456Z,35.50
2022-11-05T13:56:03.199Z,35.80
2022-11-05T13:58:36.480Z,38.30
2022-11-05T14:01:10.368Z,37.80
2022-11-05T14:03:38.841Z,37.30
2022-11-05T14:06:10.325Z,34.20
2022-11-05T14:08:41.673Z,37.70
2022-11-05T14:11:23.957Z,33.20
2022-11-05T14:13:54.957Z,36.50
2022-11-05T14:16:24.482Z,33.90
2022-11-05T14:19:10.752Z,33.50
2022-11-05T14:21:49.327Z,34.00
2022-11-05T14:24:23.478Z,35.90
2022-11-05T14:27:00.631Z,37.80
2022-11-05T14:29:39.132Z,38.20
2022-11-05T14:32:24.007Z,39.20
2022-11-05T14:34:57.609Z,39.70
2022-11-05T14:37:27.265Z,39.10
2022-11-05T14:39:56.132Z,36.40
2022-11-05T14:42:29.052Z,37.30
2022-11-05T14:44:58.770Z,32.10
2022-11-05T14:47:28.307Z,33.50
2022-11-05T14:50:01.669Z,33.50
2022-11-05T14:52:29.889Z,35.30
2022-11-05T14:54:58.836Z,36.00
2022-11-05T14:57:45.061Z,37.30
2022-11-05T15:00:41.015Z,39.30
2022-11-05T15:03:27.614Z,39.10
2022-11-05T15:06:14.424Z,40.80
2022-11-05T15:08:48.718Z,41.00
2022-11-05T15:11:20.668Z,41.00
2022-11-05T15:14:00.429Z,41.00
2022-11-05T15:16:41.249Z,42.00
2022-11-05T15:19:21.540Z,42.50
2022-11-05T15:21:49.985Z,42.40
2022-11-05T15:24:19.183Z,42.80
2022-11-05T15:27:05.044Z,43.90
2022-11-05T15:29:33.387Z,44.30
2022-11-05T15:32:01.631Z,45.50
2022-11-05T15:34:31.972Z,46.10
2022-11-05T15:37:01.294Z,46.50
2022-11-05T15:39:31.464Z,47.00
2022-11-05T15:42:02.131Z,48.00
2022-11-05T15:44:38.372Z,48.70
2022-11-05T15:47:07.499Z,48.60
2022-11-05T15:49:35.524Z,49.00
2022-11-05T15:52:03.432Z,49.20
2022-11-05T15:54:31.797Z,49.90
2022-11-05T15:57:00.244Z,50.20
2022-11-05T15:59:29.738Z,50.20
2022-11-05T16:01:58.012Z,50.50
2022-11-05T16:04:28.089Z,51.50
2022-11-05T16:06:57.934Z,51.90
2022-11-05T16:09:27.484Z,51.80
2022-11-05T16:12:14.021Z,51.90
2022-11-05T16:14:42.264Z,52.30
2022-11-05T16:17:20.914Z,52.80
2022-11-05T16:19:49.250Z,53.20
2022-11-05T16:22:17.497Z,53.40
2022-11-05T16:24:46.231Z,53.60
2022-11-05T16:27:19.476Z,54.30
2022-11-05T16:29:51.585Z,54.20
2022-11-05T16:32:29.733Z,54.80
2022-11-05T16:35:03.033Z,55.10
2022-11-05T16:37:35.813Z,55.40
2022-11-05T16:40:10.164Z,55.00
2022-11-05T16:42:39.171Z,55.60
2022-11-05T16:45:07.954Z,55.80
2022-11-05T16:47:35.894Z,56.60
2022-11-05T16:50:10.529Z,56.70
2022-11-05T16:52:38.632Z,56.60
2022-11-05T16:55:06.594Z,57.00
2022-11-05T16:57:34.671Z,57.30
2022-11-05T17:00:02.614Z,57.60
2022-11-05T17:02:30.896Z,57.80
2022-11-05T17:04:58.867Z,58.30
2022-11-05T17:07:26.838Z,59.30
2022-11-05T17:09:56.329Z,59.50
2022-11-05T17:12:24.295Z,59.30
2022-11-05T17:14:52.329Z,59.70
2022-11-05T17:17:20.231Z,60.10
2022-11-05T17:19:48.231Z,60.20
2022-11-05T17:22:16.248Z,61.40
2022-11-05T17:24:44.269Z,61.30
2022-11-05T17:27:12.204Z,61.70
2022-11-05T17:29:40.176Z,62.50
2022-11-05T17:32:08.384Z,62.80
2022-11-05T17:34:36.301Z,62.90
2022-11-05T17:37:04.485Z,62.50
2022-11-05T17:39:32.441Z,63.00
2022-11-05T17:42:00.574Z,64.20
2022-11-05T17:44:28.762Z,63.00
2022-11-05T17:46:56.687Z,63.50
2022-11-05T17:49:24.614Z,63.90
2022-11-05T17:51:52.532Z,64.10
2022-11-05T17:54:21.483Z,64.50
2022-11-05T17:56:49.435Z,64.80
2022-11-05T17:59:17.585Z,64.90
2022-11-05T18:01:46.252Z,65.50
2022-11-05T18:04:14.748Z,65.70
2022-11-05T18:06:42.821Z,65.70
2022-11-05T18:09:11.649Z,65.90
2022-11-05T18:11:40.522Z,66.30
2022-11-05T18:14:08.599Z,66.80
2022-11-05T18:16:36.849Z,66.30
2022-11-05T18:19:04.972Z,66.70
2022-11-05T18:21:32.850Z,67.40
2022-11-05T18:24:04.587Z,67.90
2022-11-05T18:26:32.843Z,67.80
2022-11-05T18:29:01.730Z,68.10
2022-11-05T18:31:30.349Z,68.10
2022-11-05T18:33:58.865Z,68.10
2022-11-05T18:36:27.787Z,68.60
2022-11-05T18:38:57.611Z,68.80
2022-11-05T18:41:25.845Z,69.00
2022-11-05T18:43:53.738Z,69.30
2022-11-05T18:46:51.134Z,69.00
2022-11-05T18:49:11.567Z,69.70
2022-11-05T18:51:39.645Z,69.90
2022-11-05T18:54:08.451Z,69.70
2022-11-05T18:56:37.602Z,69.70
2022-11-05T18:59:34.522Z,69.90
2022-11-05T19:01:53.720Z,70.60
2022-11-05T19:04:21.841Z,71.40
2022-11-05T19:06:49.766Z,70.30
2022-11-05T19:09:17.826Z,70.70
2022-11-05T19:11:45.862Z,71.00
2022-11-05T19:14:13.882Z,71.00
2022-11-05T19:16:41.942Z,72.00
2022-11-05T19:19:10.399Z,71.20
2022-11-05T19:21:38.363Z,72.70
2022-11-05T19:24:06.458Z,72.70
2022-11-05T19:26:34.383Z,71.90
2022-11-05T19:29:03.470Z,72.70
2022-11-05T19:31:31.867Z,72.60
2022-11-05T19:34:01.748Z,73.70
2022-11-05T19:36:30.324Z,73.80
2022-11-05T19:39:00.173Z,73.70
2022-11-05T19:41:28.405Z,73.40
2022-11-05T19:43:58.233Z,73.90
2022-11-05T19:46:26.450Z,73.80
2022-11-05T19:48:54.862Z,74.30
2022-11-05T19:51:25.445Z,74.80
2022-11-05T19:53:53.951Z,74.40
2022-11-05T19:56:23.477Z,75.20
2022-11-05T19:58:52.165Z,75.00
2022-11-05T20:01:20.775Z,75.60
2022-11-05T20:03:49.206Z,75.60
2022-11-05T20:06:21.701Z,76.00
2022-11-05T20:11:38.150Z,76.40
2022-11-05T20:14:08.042Z,76.10
2022-11-05T20:16:40.475Z,76.20
2022-11-05T20:19:13.023Z,75.90
2022-11-05T20:21:41.198Z,77.00
2022-11-05T20:24:10.205Z,76.70
2022-11-05T20:26:38.719Z,76.80
2022-11-05T20:29:06.791Z,76.70
2022-11-05T20:31:34.644Z,76.40
2022-11-05T20:34:02.728Z,77.50
2022-11-05T20:36:30.826Z,77.10
2022-11-05T20:38:59.145Z,77.10
2022-11-05T20:41:27.320Z,78.00
2022-11-05T20:43:55.316Z,78.00
2022-11-05T20:46:26.326Z,77.70
2022-11-05T20:48:54.498Z,78.20
2022-11-05T20:51:23.510Z,78.20
2022-11-05T20:54:01.213Z,79.10
2022-11-05T20:56:30.538Z,78.30
2022-11-05T20:58:59.206Z,78.80
2022-11-05T21:01:31.148Z,78.60
2022-11-05T21:04:00.158Z,78.90
2022-11-05T21:06:28.167Z,79.40
2022-11-05T21:08:56.407Z,79.60
2022-11-05T21:11:24.320Z,79.50
2022-11-05T21:13:52.314Z,80.00
2022-11-05T21:16:20.861Z,80.40
2022-11-05T21:18:49.005Z,80.30
2022-11-05T21:21:17.971Z,80.60
2022-11-05T21:23:46.086Z,80.80
2022-11-05T21:26:15.138Z,81.40
2022-11-05T21:28:43.108Z,80.90
2022-11-05T21:31:11.281Z,81.40
2022-11-05T21:33:39.394Z,81.70
2022-11-05T21:36:08.264Z,81.70
2022-11-05T21:38:36.485Z,82.80
2022-11-05T21:41:04.773Z,82.50
2022-11-05T21:43:33.458Z,82.40
2022-11-05T21:46:02.243Z,82.70
2022-11-05T21:48:30.676Z,82.50
2022-11-05T21:51:16.738Z,82.60
2022-11-05T21:54:03.353Z,82.80
2022-11-05T21:56:50.653Z,83.40
2022-11-05T21:59:41.859Z,83.80
2022-11-05T22:02:11.742Z,84.20
2022-11-05T22:04:43.587Z,83.40
2022-11-05T22:07:14.303Z,84.80
2022-11-05T22:09:42.355Z,84.30
2022-11-05T22:12:10.726Z,83.70
2022-11-05T22:14:38.726Z,85.10
2022-11-05T22:17:07.589Z,84.00
2022-11-05T22:19:35.893Z,84.80
2022-11-05T22:22:04.733Z,85.10
2022-11-05T22:24:33.374Z,86.00
2022-11-05T22:27:02.914Z,84.80
2022-11-05T22:29:31.082Z,85.10
2022-11-05T22:31:59.144Z,85.70
2022-11-05T22:34:27.278Z,85.90
2022-11-05T22:36:55.781Z,85.80
2022-11-05T22:39:23.751Z,85.70
2022-11-05T22:41:56.084Z,85.80
2022-11-05T22:44:24.913Z,86.50
2022-11-05T22:46:53.621Z,86.30
2022-11-05T22:49:21.541Z,87.00
2022-11-05T22:51:49.639Z,87.50
2022-11-05T22:54:17.972Z,87.70
2022-11-05T22:56:45.961Z,86.80
2022-11-05T22:59:15.433Z,86.80
2022-11-05T23:01:44.450Z,87.50
2022-11-05T23:04:13.430Z,87.90
2022-11-05T23:07:00.124Z,87.30
2022-11-05T23:09:51.102Z,87.90
2022-11-05T23:12:21.041Z,87.60
2022-11-05T23:14:48.963Z,88.00
2022-11-05T23:17:35.601Z,87.50
2022-11-05T23:20:30.353Z,87.70
2022-11-05T23:23:17.265Z,88.00
2022-11-05T23:25:45.205Z,87.30
2022-11-05T23:28:13.526Z,88.10
2022-11-05T23:31:03.172Z,87.80
2022-11-05T23:33:33.491Z,88.50
2022-11-05T23:36:19.896Z,88.20
2022-11-05T23:38:47.858Z,88.10
2022-11-05T23:41:34.115Z,88.70
2022-11-05T23:44:20.699Z,88.90
2022-11-05T23:47:07.254Z,88.50
2022-11-05T23:49:35.444Z,88.00
2022-11-05T23:52:03.520Z,88.60
2022-11-05T23:54:31.537Z,89.50
2022-11-05T23:56:59.476Z,88.80
2022-11-05T23:59:27.449Z,89.10
